createdAt,value
2022-11-03T00:00:12.861Z,101363.94
2022-11-03T00:00:44.619Z,101364.91
2022-11-03T00:01:16.206Z,101361.00
2022-11-03T00:01:49.207Z,101361.63
2022-11-03T00:02:21.051Z,101356.72
2022-11-03T00:02:52.657Z,101358.56
2022-11-03T00:03:24.232Z,101349.75
2022-11-03T00:03:55.706Z,101347.28
2022-11-03T00:04:27.364Z,101346.66
2022-11-03T00:05:19.017Z,101349.31
2022-11-03T00:06:05.885Z,101351.38
2022-11-03T00:06:38.058Z,101351.75
2022-11-03T00:07:10.009Z,101353.00
2022-11-03T00:07:41.505Z,101352.16
2022-11-03T00:10:02.968Z,101354.63
2022-11-03T00:10:34.533Z,101349.09
2022-11-03T00:13:37.514Z,101347.22
2022-11-03T00:14:10.925Z,101338.63
2022-11-03T00:14:42.541Z,101342.34
2022-11-03T00:15:14.104Z,101348.47
2022-11-03T00:15:49.477Z,101349.25
2022-11-03T00:16:21.108Z,101346.59
2022-11-03T00:16:52.960Z,101350.28
2022-11-03T00:17:24.525Z,101344.75
2022-11-03T00:17:56.045Z,101351.28
2022-11-03T00:18:27.716Z,101351.09
2022-11-03T00:18:59.300Z,101353.75
2022-11-03T00:19:30.881Z,101345.97
2022-11-03T00:20:02.838Z,101354.97
2022-11-03T00:20:34.385Z,101352.31
2022-11-03T00:21:08.686Z,101357.00
2022-11-03T00:21:40.229Z,101347.41
2022-11-03T00:22:11.842Z,101343.13
2022-11-03T00:22:43.361Z,101341.69
2022-11-03T00:23:14.905Z,101345.97
2022-11-03T00:23:47.010Z,101346.38
2022-11-03T00:24:18.522Z,101340.22
2022-11-03T00:24:50.008Z,101345.34
2022-11-03T00:25:21.559Z,101342.28
2022-11-03T00:25:53.092Z,101347.22
2022-11-03T00:26:26.391Z,101348.44
2022-11-03T00:26:57.950Z,101350.06
2022-11-03T00:27:29.485Z,101347.63
2022-11-03T00:28:33.888Z,101349.44
2022-11-03T00:29:10.485Z,101347.19
2022-11-03T00:29:41.992Z,101344.50
2022-11-03T00:30:13.833Z,101342.69
2022-11-03T00:30:45.469Z,101347.63
2022-11-03T00:31:22.161Z,101343.94
2022-11-03T00:31:53.676Z,101341.91
2022-11-03T00:32:25.189Z,101345.56
2022-11-03T00:32:58.461Z,101343.31
2022-11-03T00:33:33.080Z,101344.34
2022-11-03T00:34:05.467Z,101347.19
2022-11-03T00:34:36.979Z,101342.69
2022-11-03T00:35:08.639Z,101346.38
2022-11-03T00:35:40.150Z,101341.06
2022-11-03T00:36:25.978Z,101341.06
2022-11-03T00:36:57.464Z,101338.56
2022-11-03T00:37:29.078Z,101336.13
2022-11-03T00:38:00.559Z,101335.91
2022-11-03T00:38:32.628Z,101335.28
2022-11-03T00:39:05.301Z,101343.44
2022-11-03T00:39:36.925Z,101335.47
2022-11-03T00:40:11.102Z,101344.28
2022-11-03T00:40:42.605Z,101335.69
2022-11-03T00:41:14.600Z,101338.56
2022-11-03T00:41:46.238Z,101340.38
2022-11-03T00:42:17.846Z,101330.78
2022-11-03T00:42:49.421Z,101335.28
2022-11-03T00:43:23.062Z,101338.75
2022-11-03T00:43:55.012Z,101329.34
2022-11-03T00:44:27.410Z,101332.44
2022-11-03T00:44:58.947Z,101338.97
2022-11-03T00:45:30.588Z,101331.22
2022-11-03T00:46:02.903Z,101328.56
2022-11-03T00:46:35.547Z,101330.81
2022-11-03T00:47:07.686Z,101320.16
2022-11-03T00:47:59.262Z,101328.78
2022-11-03T00:48:32.376Z,101320.16
2022-11-03T00:49:05.169Z,101323.06
2022-11-03T00:49:36.742Z,101314.25
2022-11-03T00:50:08.647Z,101313.44
2022-11-03T00:50:40.147Z,101320.38
2022-11-03T00:51:11.675Z,101317.31
2022-11-03T00:51:43.189Z,101316.50
2022-11-03T00:52:14.702Z,101310.38
2022-11-03T00:52:46.292Z,101308.31
2022-11-03T00:53:17.794Z,101304.66
2022-11-03T00:53:54.599Z,101304.66
2022-11-03T00:54:26.108Z,101308.31
2022-11-03T00:54:57.668Z,101299.72
2022-11-03T00:55:29.189Z,101304.22
2022-11-03T00:56:01.143Z,101300.75
2022-11-03T00:56:42.430Z,101292.75
2022-11-03T00:57:13.948Z,101295.44
2022-11-03T00:57:45.540Z,101293.38
2022-11-03T00:58:17.131Z,101295.84
2022-11-03T00:58:49.791Z,101288.88
2022-11-03T00:59:21.304Z,101289.09
2022-11-03T00:59:52.804Z,101289.09
2022-11-03T01:00:24.316Z,101287.44
2022-11-03T01:01:03.070Z,101286.41
2022-11-03T01:01:46.519Z,101281.72
2022-11-03T01:02:18.790Z,101292.75
2022-11-03T01:02:50.501Z,101283.34
2022-11-03T01:03:22.144Z,101278.22
2022-11-03T01:04:14.265Z,101287.84
2022-11-03T01:05:04.632Z,101288.25
2022-11-03T01:05:59.593Z,101280.88
2022-11-03T01:06:50.649Z,101282.50
2022-11-03T01:07:22.478Z,101284.13
2022-11-03T01:07:54.135Z,101282.09
2022-11-03T01:08:27.714Z,101276.78
2022-11-03T01:08:59.495Z,101289.25
2022-11-03T01:09:35.646Z,101274.50
2022-11-03T01:10:09.012Z,101271.84
2022-11-03T01:11:00.623Z,101277.19
2022-11-03T01:11:44.097Z,101271.88
2022-11-03T01:12:18.227Z,101271.06
2022-11-03T01:12:49.752Z,101272.28
2022-11-03T01:13:21.354Z,101266.56
2022-11-03T01:13:52.963Z,101259.59
2022-11-03T01:14:29.699Z,101267.19
2022-11-03T01:15:01.209Z,101272.28
2022-11-03T01:15:33.102Z,101263.28
2022-11-03T01:16:04.986Z,101265.31
2022-11-03T01:16:36.538Z,101255.50
2022-11-03T01:17:13.942Z,101265.72
2022-11-03T01:17:45.483Z,101261.84
2022-11-03T01:18:17.091Z,101255.09
2022-11-03T01:18:48.715Z,101262.44
2022-11-03T01:19:20.456Z,101249.34
2022-11-03T01:19:52.426Z,101256.72
2022-11-03T01:20:23.951Z,101250.56
2022-11-03T01:20:56.683Z,101247.50
2022-11-03T01:21:28.379Z,101245.66
2022-11-03T01:22:00.223Z,101246.06
2022-11-03T01:22:31.771Z,101249.34
2022-11-03T01:23:03.624Z,101251.41
2022-11-03T01:23:36.060Z,101249.56
2022-11-03T01:24:07.595Z,101248.75
2022-11-03T01:24:43.005Z,101249.56
2022-11-03T01:25:14.530Z,101249.34
2022-11-03T01:25:46.067Z,101255.50
2022-11-03T01:26:18.116Z,101253.25
2022-11-03T01:26:50.120Z,101252.84
2022-11-03T01:27:24.342Z,101248.53
2022-11-03T01:27:55.924Z,101245.25
2022-11-03T01:28:27.460Z,101254.25
2022-11-03T01:29:00.339Z,101250.56
2022-11-03T01:29:31.868Z,101250.19
2022-11-03T01:30:03.814Z,101246.09
2022-11-03T01:30:35.511Z,101248.13
2022-11-03T01:31:16.157Z,101244.44
2022-11-03T01:31:47.739Z,101249.78
2022-11-03T01:32:19.312Z,101242.81
2022-11-03T01:32:50.935Z,101242.81
2022-11-03T01:33:22.437Z,101237.09
2022-11-03T01:33:55.997Z,101245.69
2022-11-03T01:34:27.559Z,101246.72
2022-11-03T01:34:59.212Z,101233.41
2022-11-03T01:35:30.765Z,101246.72
2022-11-03T01:36:02.342Z,101231.97
2022-11-03T01:36:33.897Z,101236.06
2022-11-03T01:37:05.945Z,101231.78
2022-11-03T01:37:37.489Z,101225.63
2022-11-03T01:38:09.053Z,101229.31
2022-11-03T01:38:40.996Z,101235.47
2022-11-03T01:39:14.158Z,101229.31
2022-11-03T01:39:45.670Z,101236.06
2022-11-03T01:40:17.339Z,101228.91
2022-11-03T01:40:49.065Z,101228.91
2022-11-03T01:41:23.653Z,101224.00
2022-11-03T01:41:55.209Z,101224.00
2022-11-03T01:42:26.733Z,101222.00
2022-11-03T01:43:18.233Z,101225.25
2022-11-03T01:44:08.023Z,101227.94
2022-11-03T01:44:46.944Z,101221.16
2022-11-03T01:45:18.532Z,101217.88
2022-11-03T01:46:24.485Z,101227.72
2022-11-03T01:47:03.688Z,101226.91
2022-11-03T01:47:36.034Z,101228.94
2022-11-03T01:48:08.945Z,101230.59
2022-11-03T01:48:44.805Z,101224.44
2022-11-03T01:49:25.040Z,101233.88
2022-11-03T01:50:06.315Z,101223.63
2022-11-03T01:50:38.021Z,101227.31
2022-11-03T01:51:11.335Z,101220.34
2022-11-03T01:51:43.776Z,101228.94
2022-11-03T01:52:34.080Z,101219.34
2022-11-03T01:53:06.709Z,101221.19
2022-11-03T01:53:41.594Z,101211.75
2022-11-03T01:54:16.377Z,101208.06
2022-11-03T01:54:51.706Z,101211.75
2022-11-03T01:55:27.910Z,101213.81
2022-11-03T01:55:59.590Z,101208.84
2022-11-03T01:56:32.927Z,101208.03
2022-11-03T01:57:08.935Z,101208.03
2022-11-03T01:57:45.435Z,101210.53
2022-11-03T01:58:20.138Z,101213.56
2022-11-03T01:58:54.243Z,101208.03
2022-11-03T01:59:26.175Z,101209.72
2022-11-03T01:59:58.430Z,101208.03
2022-11-03T02:00:30.684Z,101212.97
2022-11-03T02:01:02.530Z,101214.41
2022-11-03T02:01:34.456Z,101214.63
2022-11-03T02:02:06.463Z,101212.16
2022-11-03T02:02:38.241Z,101211.53
2022-11-03T02:03:10.553Z,101210.91
2022-11-03T02:03:46.940Z,101205.59
2022-11-03T02:04:21.911Z,101209.25
2022-11-03T02:04:54.397Z,101212.16
2022-11-03T02:05:26.846Z,101206.81
2022-11-03T02:05:58.852Z,101206.00
2022-11-03T02:06:31.223Z,101213.78
2022-11-03T02:07:08.688Z,101212.53
2022-11-03T02:07:52.239Z,101209.25
2022-11-03T02:08:47.259Z,101202.31
2022-11-03T02:09:19.640Z,101205.59
2022-11-03T02:09:51.168Z,101192.69
2022-11-03T02:10:24.371Z,101196.56
2022-11-03T02:10:56.901Z,101196.56
2022-11-03T02:11:47.111Z,101197.81
2022-11-03T02:12:20.227Z,101200.47
2022-11-03T02:12:52.069Z,101200.25
2022-11-03T02:13:27.580Z,101194.13
2022-11-03T02:13:59.152Z,101190.03
2022-11-03T02:14:30.655Z,101190.44
2022-11-03T02:15:06.057Z,101191.66
2022-11-03T02:15:38.218Z,101187.97
2022-11-03T02:16:09.766Z,101188.19
2022-11-03T02:16:46.390Z,101190.84
2022-11-03T02:17:20.875Z,101190.84
2022-11-03T02:17:54.494Z,101183.47
2022-11-03T02:18:28.851Z,101182.91
2022-11-03T02:19:02.021Z,101187.19
2022-11-03T02:19:41.558Z,101181.88
2022-11-03T02:20:19.359Z,101186.16
2022-11-03T02:21:02.508Z,101178.19
2022-11-03T02:21:41.339Z,101176.75
2022-11-03T02:22:36.714Z,101176.75
2022-11-03T02:23:47.668Z,101181.47
2022-11-03T02:24:26.355Z,101184.31
2022-11-03T02:25:28.721Z,101174.72
2022-11-03T02:26:00.979Z,101183.50
2022-11-03T02:26:32.499Z,101174.09
2022-11-03T02:27:04.294Z,101174.09
2022-11-03T02:27:35.868Z,101179.41
2022-11-03T02:28:07.892Z,101172.03
2022-11-03T02:28:39.454Z,101175.72
2022-11-03T02:29:10.994Z,101174.09
2022-11-03T02:29:42.598Z,101174.09
2022-11-03T02:30:14.270Z,101174.91
2022-11-03T02:31:14.425Z,101173.47
2022-11-03T02:31:58.545Z,101175.53
2022-11-03T02:32:35.269Z,101175.13
2022-11-03T02:33:25.022Z,101171.00
2022-11-03T02:33:56.581Z,101171.00
2022-11-03T02:34:32.789Z,101168.13
2022-11-03T02:35:29.450Z,101161.81
2022-11-03T02:36:07.391Z,101165.06
2022-11-03T02:36:44.974Z,101167.50
2022-11-03T02:37:22.016Z,101164.66
2022-11-03T02:37:55.930Z,101160.16
2022-11-03T02:38:28.486Z,101155.25
2022-11-03T02:39:16.473Z,101159.94
2022-11-03T02:39:52.601Z,101165.47
2022-11-03T02:40:30.664Z,101149.09
2022-11-03T02:41:05.637Z,101154.00
2022-11-03T02:41:38.197Z,101154.63
2022-11-03T02:42:11.020Z,101154.00
2022-11-03T02:42:46.066Z,101151.56
2022-11-03T02:43:18.573Z,101149.31
2022-11-03T02:43:50.573Z,101157.28
2022-11-03T02:44:22.553Z,101155.66
2022-11-03T02:44:55.278Z,101166.28
2022-11-03T02:45:28.264Z,101157.28
2022-11-03T02:46:00.809Z,101156.25
2022-11-03T02:46:33.363Z,101155.44
2022-11-03T02:47:08.501Z,101149.50
2022-11-03T02:47:40.495Z,101156.88
2022-11-03T02:48:15.278Z,101146.63
2022-11-03T02:48:47.896Z,101154.81
2022-11-03T02:49:19.487Z,101154.81
2022-11-03T02:50:33.450Z,101146.63
2022-11-03T02:51:05.227Z,101159.13
2022-11-03T02:51:36.789Z,101143.78
2022-11-03T02:52:44.304Z,101152.97
2022-11-03T02:53:16.589Z,101137.22
2022-11-03T02:54:08.040Z,101150.75
2022-11-03T02:54:42.521Z,101142.34
2022-11-03T02:55:31.868Z,101139.69
2022-11-03T02:56:07.325Z,101138.25
2022-11-03T02:56:47.539Z,101139.47
2022-11-03T02:57:22.060Z,101134.16
2022-11-03T02:57:59.682Z,101133.13
2022-11-03T02:58:35.640Z,101139.69
2022-11-03T02:59:10.637Z,101133.97
2022-11-03T02:59:54.443Z,101131.91
2022-11-03T03:00:26.719Z,101139.69
2022-11-03T03:01:01.193Z,101137.22
2022-11-03T03:01:37.493Z,101130.28
2022-11-03T03:02:11.322Z,101131.28
2022-11-03T03:02:57.342Z,101134.56
2022-11-03T03:03:32.381Z,101133.56
2022-11-03T03:04:06.952Z,101129.47
2022-11-03T03:04:44.725Z,101128.44
2022-11-03T03:05:17.651Z,101130.47
2022-11-03T03:05:50.430Z,101129.25
2022-11-03T03:06:42.975Z,101139.28
2022-11-03T03:07:17.490Z,101119.84
2022-11-03T03:07:51.055Z,101129.03
2022-11-03T03:08:23.322Z,101129.03
2022-11-03T03:09:02.440Z,101123.72
2022-11-03T03:09:59.105Z,101132.13
2022-11-03T03:10:34.046Z,101125.78
2022-11-03T03:11:06.273Z,101119.22
2022-11-03T03:11:41.513Z,101126.59
2022-11-03T03:12:16.444Z,101128.03
2022-11-03T03:12:50.985Z,101120.03
2022-11-03T03:13:24.071Z,101126.38
2022-11-03T03:13:55.593Z,101120.88
2022-11-03T03:14:34.233Z,101122.28
2022-11-03T03:15:06.915Z,101125.78
2022-11-03T03:15:48.100Z,101119.03
2022-11-03T03:16:26.731Z,101127.00
2022-11-03T03:16:58.238Z,101116.16
2022-11-03T03:17:32.678Z,101120.03
2022-11-03T03:18:21.795Z,101120.03
2022-11-03T03:19:12.095Z,101117.59
2022-11-03T03:20:21.064Z,101116.75
2022-11-03T03:21:17.821Z,101106.09
2022-11-03T03:21:53.589Z,101119.22
2022-11-03T03:22:34.769Z,101114.50
2022-11-03T03:23:24.173Z,101118.19
2022-11-03T03:24:02.787Z,101109.41
2022-11-03T03:24:40.089Z,101104.09
2022-11-03T03:25:20.615Z,101108.59
2022-11-03T03:26:11.192Z,101109.00
2022-11-03T03:26:45.162Z,101109.41
2022-11-03T03:27:18.002Z,101110.22
2022-11-03T03:27:52.041Z,101103.88
2022-11-03T03:28:32.345Z,101105.53
2022-11-03T03:29:07.774Z,101102.44
2022-11-03T03:30:00.271Z,101101.63
2022-11-03T03:30:32.915Z,101107.78
2022-11-03T03:31:07.526Z,101100.81
2022-11-03T03:31:42.297Z,101104.50
2022-11-03T03:32:18.624Z,101100.00
2022-11-03T03:32:51.168Z,101103.28
2022-11-03T03:33:22.983Z,101107.78
2022-11-03T03:34:04.522Z,101099.59
2022-11-03T03:34:47.914Z,101101.22
2022-11-03T03:35:23.800Z,101099.16
2022-11-03T03:35:55.811Z,101096.72
2022-11-03T03:36:29.065Z,101100.41
2022-11-03T03:37:01.224Z,101100.41
2022-11-03T03:37:38.871Z,101093.66
2022-11-03T03:38:15.050Z,101098.16
2022-11-03T03:38:54.646Z,101096.31
2022-11-03T03:39:28.947Z,101104.28
2022-11-03T03:40:04.195Z,101096.72
2022-11-03T03:40:37.951Z,101094.66
2022-11-03T03:41:11.017Z,101092.22
2022-11-03T03:41:43.227Z,101098.34
2022-11-03T03:42:15.279Z,101095.88
2022-11-03T03:42:47.570Z,101090.38
2022-11-03T03:43:20.326Z,101093.44
2022-11-03T03:43:57.805Z,101092.22
2022-11-03T03:44:30.653Z,101093.47
2022-11-03T03:45:03.068Z,101095.47
2022-11-03T03:45:35.782Z,101095.47
2022-11-03T03:46:10.298Z,101091.78
2022-11-03T03:46:46.169Z,101086.47
2022-11-03T03:47:31.964Z,101092.81
2022-11-03T03:48:04.369Z,101095.31
2022-11-03T03:48:35.966Z,101098.97
2022-11-03T03:49:07.828Z,101085.66
2022-11-03T03:49:39.631Z,101090.19
2022-11-03T03:50:11.396Z,101093.03
2022-11-03T03:50:44.134Z,101089.78
2022-11-03T03:51:17.549Z,101093.03
2022-11-03T03:51:49.985Z,101080.75
2022-11-03T03:52:21.928Z,101086.47
2022-11-03T03:53:08.141Z,101084.84
2022-11-03T03:53:39.751Z,101074.59
2022-11-03T03:54:11.283Z,101083.63
2022-11-03T03:54:42.957Z,101083.63
2022-11-03T03:55:18.370Z,101081.97
2022-11-03T03:55:51.532Z,101088.13
2022-11-03T03:56:30.363Z,101078.28
2022-11-03T03:57:03.549Z,101079.94
2022-11-03T03:57:35.129Z,101093.03
2022-11-03T03:58:07.973Z,101078.28
2022-11-03T03:58:39.809Z,101086.47
2022-11-03T03:59:11.447Z,101085.66
2022-11-03T03:59:43.951Z,101070.72
2022-11-03T04:00:16.147Z,101068.47
2022-11-03T04:00:47.743Z,101069.72
2022-11-03T04:01:19.462Z,101073.41
2022-11-03T04:01:51.161Z,101079.53
2022-11-03T04:02:22.881Z,101069.50
2022-11-03T04:02:57.569Z,101063.38
2022-11-03T04:03:29.743Z,101059.25
2022-11-03T04:04:01.362Z,101064.38
2022-11-03T04:04:32.884Z,101071.34
2022-11-03T04:05:04.878Z,101061.53
2022-11-03T04:05:36.390Z,101069.69
2022-11-03T04:06:08.738Z,101071.75
2022-11-03T04:06:40.283Z,101070.09
2022-11-03T04:07:30.732Z,101077.25
2022-11-03T04:08:02.239Z,101069.69
2022-11-03T04:08:33.930Z,101064.16
2022-11-03T04:09:05.588Z,101067.66
2022-11-03T04:09:37.137Z,101071.13
2022-11-03T04:10:09.083Z,101066.00
2022-11-03T04:10:40.632Z,101073.19
2022-11-03T04:11:31.017Z,101063.16
2022-11-03T04:12:21.169Z,101062.34
2022-11-03T04:13:11.427Z,101062.13
2022-11-03T04:14:01.534Z,101059.47
2022-11-03T04:14:51.524Z,101061.09
2022-11-03T04:16:01.844Z,101059.47
2022-11-03T04:16:51.923Z,101052.09
2022-11-03T04:17:42.077Z,101049.66
2022-11-03T04:18:32.052Z,101052.94
2022-11-03T04:19:22.135Z,101051.28
2022-11-03T04:20:12.287Z,101060.31
2022-11-03T04:21:02.429Z,101052.53
2022-11-03T04:21:52.552Z,101048.03
2022-11-03T04:22:26.659Z,101049.25
2022-11-03T04:22:58.232Z,101050.06
2022-11-03T04:23:29.751Z,101041.06
2022-11-03T04:24:01.353Z,101048.63
2022-11-03T04:24:32.892Z,101049.66
2022-11-03T04:25:04.722Z,101048.03
2022-11-03T04:25:36.222Z,101052.94
2022-11-03T04:26:13.011Z,101042.69
2022-11-03T04:26:44.583Z,101040.88
2022-11-03T04:27:29.517Z,101040.25
2022-11-03T04:28:01.178Z,101031.66
2022-11-03T04:28:32.747Z,101035.94
2022-11-03T04:29:06.937Z,101035.94
2022-11-03T04:29:38.443Z,101029.81
2022-11-03T04:30:15.337Z,101037.59
2022-11-03T04:30:46.889Z,101038.59
2022-11-03T04:31:19.663Z,101026.94
2022-11-03T04:31:51.169Z,101027.97
2022-11-03T04:32:22.705Z,101019.38
2022-11-03T04:32:54.763Z,101028.19
2022-11-03T04:33:27.023Z,101030.00
2022-11-03T04:33:59.003Z,101025.50
2022-11-03T04:34:30.671Z,101030.63
2022-11-03T04:35:07.239Z,101021.81
2022-11-03T04:35:38.769Z,101012.81
2022-11-03T04:36:11.243Z,101018.13
2022-11-03T04:36:42.786Z,101024.06
2022-11-03T04:37:15.650Z,101015.47
2022-11-03T04:37:52.101Z,101016.50
2022-11-03T04:38:24.447Z,101017.72
2022-11-03T04:38:56.565Z,101027.53
2022-11-03T04:39:28.617Z,101017.72
2022-11-03T04:40:01.347Z,101020.38
2022-11-03T04:40:33.489Z,101020.97
2022-11-03T04:41:14.989Z,101016.31
2022-11-03T04:41:46.592Z,101017.72
2022-11-03T04:42:22.120Z,101020.19
2022-11-03T04:42:54.027Z,101022.41
2022-11-03T04:43:34.015Z,101021.41
2022-11-03T04:44:12.333Z,101020.38
2022-11-03T04:44:44.692Z,101015.03
2022-11-03T04:45:34.057Z,101013.00
2022-11-03T04:46:05.984Z,101011.16
2022-11-03T04:46:37.505Z,101017.28
2022-11-03T04:47:11.983Z,101003.38
2022-11-03T04:47:43.777Z,101015.66
2022-11-03T04:48:19.070Z,101011.97
2022-11-03T04:48:50.706Z,101011.97
2022-11-03T04:49:23.195Z,101001.31
2022-11-03T04:49:54.991Z,101009.50
2022-11-03T04:50:26.888Z,101013.59
2022-11-03T04:51:00.731Z,101011.97
2022-11-03T04:51:34.960Z,101015.25
2022-11-03T04:52:13.197Z,101016.25
2022-11-03T04:52:44.716Z,101018.50
2022-11-03T04:53:18.105Z,101015.25
2022-11-03T04:54:00.603Z,101010.34
2022-11-03T04:54:32.222Z,101001.31
2022-11-03T04:55:06.700Z,101007.66
2022-11-03T04:55:40.525Z,100999.69
2022-11-03T04:56:16.577Z,101008.28
2022-11-03T04:56:48.231Z,101008.28
2022-11-03T04:57:20.063Z,101008.28
2022-11-03T04:57:57.294Z,101003.56
2022-11-03T04:58:32.866Z,100995.16
2022-11-03T04:59:11.308Z,100997.63
2022-11-03T04:59:47.844Z,101002.94
2022-11-03T05:00:19.817Z,100995.34
2022-11-03T05:00:59.781Z,100994.31
2022-11-03T05:01:31.985Z,100989.59
2022-11-03T05:02:04.149Z,100999.63
2022-11-03T05:02:35.865Z,100984.50
2022-11-03T05:03:13.796Z,100991.44
2022-11-03T05:03:46.877Z,100982.63
2022-11-03T05:04:19.095Z,100984.69
2022-11-03T05:04:50.827Z,100980.41
2022-11-03T05:05:24.575Z,100990.44
2022-11-03T05:05:56.796Z,100987.56
2022-11-03T05:06:29.127Z,100989.59
2022-11-03T05:07:00.691Z,100991.88
2022-11-03T05:07:35.929Z,100984.91
2022-11-03T05:08:08.970Z,100990.44
2022-11-03T05:08:41.290Z,100992.25
2022-11-03T05:09:16.975Z,100991.88
2022-11-03T05:09:48.899Z,101001.28
2022-11-03T05:10:27.895Z,100989.00
2022-11-03T05:10:59.751Z,100996.38
2022-11-03T05:11:45.553Z,100987.34
2022-11-03T05:12:18.048Z,100989.81
2022-11-03T05:12:49.791Z,100991.66
2022-11-03T05:13:26.957Z,100994.31
2022-11-03T05:14:01.937Z,100993.28
2022-11-03T05:14:33.651Z,100995.94
2022-11-03T05:15:14.766Z,100994.75
2022-11-03T05:15:48.043Z,100988.38
2022-11-03T05:16:19.647Z,100996.16
2022-11-03T05:16:55.212Z,100991.88
2022-11-03T05:17:28.332Z,100993.72
2022-11-03T05:18:01.590Z,100994.75
2022-11-03T05:18:36.954Z,100995.56
2022-11-03T05:19:15.593Z,100995.56
2022-11-03T05:19:47.331Z,100994.75
2022-11-03T05:21:01.331Z,100987.56
2022-11-03T05:21:32.834Z,100996.97
2022-11-03T05:22:05.120Z,100993.50
2022-11-03T05:22:37.609Z,100995.56
2022-11-03T05:23:11.307Z,100982.47
2022-11-03T05:23:48.774Z,100981.63
2022-11-03T05:24:21.840Z,100990.63
2022-11-03T05:24:57.482Z,100997.81
2022-11-03T05:25:38.256Z,100988.78
2022-11-03T05:26:15.337Z,100984.50
2022-11-03T05:26:47.086Z,100984.28
2022-11-03T05:27:21.015Z,100977.53
2022-11-03T05:27:52.500Z,100983.28
2022-11-03T05:28:37.836Z,100982.25
2022-11-03T05:29:14.841Z,100976.13
2022-11-03T05:29:47.419Z,100977.97
2022-11-03T05:30:18.955Z,100971.19
2022-11-03T05:30:51.075Z,100973.03
2022-11-03T05:31:30.316Z,100979.97
2022-11-03T05:32:01.864Z,100971.81
2022-11-03T05:32:33.926Z,100976.28
2022-11-03T05:33:17.519Z,100973.84
2022-11-03T05:33:49.947Z,100982.25
2022-11-03T05:34:25.908Z,100978.56
2022-11-03T05:34:57.807Z,100975.69
2022-11-03T05:35:29.303Z,100970.56
2022-11-03T05:36:03.593Z,100972.63
2022-11-03T05:36:35.176Z,100972.41
2022-11-03T05:37:06.638Z,100966.06
2022-11-03T05:37:38.148Z,100961.56
2022-11-03T05:38:13.008Z,100964.22
2022-11-03T05:38:44.504Z,100958.69
2022-11-03T05:39:31.333Z,100968.13
2022-11-03T05:40:23.240Z,100965.03
2022-11-03T05:40:55.065Z,100952.53
2022-11-03T05:41:29.634Z,100959.50
2022-11-03T05:42:01.445Z,100960.31
2022-11-03T05:42:35.898Z,100959.50
2022-11-03T05:43:13.851Z,100964.00
2022-11-03T05:43:46.613Z,100956.84
2022-11-03T05:44:33.859Z,100955.84
2022-11-03T05:45:23.537Z,100959.50
2022-11-03T05:45:59.214Z,100955.84
2022-11-03T05:46:32.207Z,100959.50
2022-11-03T05:47:17.242Z,100954.19
2022-11-03T05:47:49.335Z,100956.84
2022-11-03T05:48:47.320Z,100955.00
2022-11-03T05:49:18.936Z,100958.28
2022-11-03T05:49:54.037Z,100962.38
2022-11-03T05:50:27.616Z,100959.13
2022-11-03T05:51:16.025Z,100957.47
2022-11-03T05:51:47.662Z,100957.88
2022-11-03T05:52:26.845Z,100954.41
2022-11-03T05:53:04.262Z,100954.59
2022-11-03T05:53:38.797Z,100954.41
2022-11-03T05:54:19.907Z,100957.88
2022-11-03T05:54:52.715Z,100948.84
2022-11-03T05:55:31.070Z,100952.16
2022-11-03T05:56:04.591Z,100958.28
2022-11-03T05:56:36.195Z,100951.13
2022-11-03T05:57:18.298Z,100951.31
2022-11-03T05:57:50.278Z,100958.25
2022-11-03T05:58:29.668Z,100961.91
2022-11-03T05:59:02.177Z,100955.78
2022-11-03T05:59:33.717Z,100954.56
2022-11-03T06:00:08.158Z,100957.03
2022-11-03T06:00:48.290Z,100952.50
2022-11-03T06:01:29.903Z,100953.53
2022-11-03T06:02:01.778Z,100938.59
2022-11-03T06:02:41.948Z,100943.09
2022-11-03T06:03:28.471Z,100942.72
2022-11-03T06:04:01.447Z,100935.34
2022-11-03T06:04:37.351Z,100950.06
2022-11-03T06:05:18.782Z,100951.69
2022-11-03T06:05:50.669Z,100935.72
2022-11-03T06:06:32.179Z,100934.91
2022-11-03T06:07:09.823Z,100940.66
2022-11-03T06:07:41.376Z,100936.16
2022-11-03T06:09:13.924Z,100931.00
2022-11-03T06:09:45.794Z,100929.16
2022-11-03T06:10:36.367Z,100927.09
2022-11-03T06:11:10.376Z,100927.09
2022-11-03T06:11:42.563Z,100936.09
2022-11-03T06:12:18.188Z,100924.81
2022-11-03T06:12:49.781Z,100925.63
2022-11-03T06:13:30.303Z,100928.28
2022-11-03T06:14:02.591Z,100921.53
2022-11-03T06:14:36.273Z,100927.47
2022-11-03T06:15:22.716Z,100922.09
2022-11-03T06:16:00.252Z,100920.09
2022-11-03T06:16:42.486Z,100930.72
2022-11-03T06:17:25.483Z,100920.91
2022-11-03T06:17:57.535Z,100921.72
2022-11-03T06:18:35.738Z,100923.34
2022-11-03T06:19:20.606Z,100925.78
2022-11-03T06:19:54.414Z,100919.66
2022-11-03T06:20:26.478Z,100932.75
2022-11-03T06:21:00.026Z,100919.66
2022-11-03T06:21:31.562Z,100926.00
2022-11-03T06:22:11.646Z,100920.09
2022-11-03T06:22:45.603Z,100920.09
2022-11-03T06:23:18.555Z,100916.00
2022-11-03T06:23:51.173Z,100919.25
2022-11-03T06:24:26.864Z,100914.38
2022-11-03T06:25:11.297Z,100927.47
2022-11-03T06:25:43.469Z,100931.16
2022-11-03T06:26:19.394Z,100916.00
2022-11-03T06:26:52.367Z,100916.44
2022-11-03T06:27:24.494Z,100918.28
2022-11-03T06:28:01.122Z,100924.63
2022-11-03T06:28:36.997Z,100911.50
2022-11-03T06:29:13.362Z,100910.63
2022-11-03T06:29:50.531Z,100904.06
2022-11-03T06:30:27.085Z,100909.38
2022-11-03T06:30:58.699Z,100902.41
2022-11-03T06:31:32.229Z,100905.91
2022-11-03T06:32:03.848Z,100906.94
2022-11-03T06:32:35.420Z,100909.81
2022-11-03T06:33:36.559Z,100910.03
2022-11-03T06:34:26.758Z,100904.09
2022-11-03T06:34:58.832Z,100911.88
2022-11-03T06:35:30.351Z,100905.72
2022-11-03T06:36:15.733Z,100904.09
2022-11-03T06:36:47.428Z,100901.44
2022-11-03T06:37:26.978Z,100900.41
2022-11-03T06:37:58.918Z,100900.41
2022-11-03T06:38:31.838Z,100893.88
2022-11-03T06:39:23.936Z,100897.56
2022-11-03T06:40:00.368Z,100902.91
2022-11-03T06:40:37.093Z,100901.28
2022-11-03T06:41:15.832Z,100899.63
2022-11-03T06:41:47.400Z,100902.09
2022-11-03T06:42:21.655Z,100897.56
2022-11-03T06:42:54.362Z,100898.59
2022-11-03T06:43:28.900Z,100898.59
2022-11-03T06:44:03.077Z,100886.91
2022-11-03T06:44:39.212Z,100888.97
2022-11-03T06:45:14.499Z,100906.59
2022-11-03T06:45:54.678Z,100911.91
2022-11-03T06:46:26.772Z,100899.41
2022-11-03T06:47:03.196Z,100901.88
2022-11-03T06:47:34.707Z,100898.19
2022-11-03T06:48:08.344Z,100893.88
2022-11-03T06:48:40.040Z,100901.66
2022-11-03T06:49:28.809Z,100899.59
2022-11-03T06:50:32.943Z,100893.44
2022-11-03T06:51:15.621Z,100897.56
2022-11-03T06:51:47.155Z,100891.00
2022-11-03T06:52:24.091Z,100893.44
2022-11-03T06:52:56.944Z,100884.88
2022-11-03T06:53:32.076Z,100889.75
2022-11-03T06:54:06.042Z,100893.44